Time;durP1;ratioP1;P1;durP2;ratioP2;P2;SDS_P1;SDS_P2;PMS_P1;PMS_P2;Temp;Humidity;BMP_temperature;BMP_pressure;BME280_temperature;BME280_humidity;BME280_pressure;Samples;Min_cycle;Max_cycle;Signal;HPM_P1;HPM_P2
2023/07/05 00:01:49;;;;;;;;;;;14.80;99.90;;;;;;7302381;19;9587;-81
2023/07/05 00:04:20;;;;;;;;;;;14.70;99.90;;;;;;7301135;19;8988;-81
2023/07/05 00:06:49;;;;;;;;;;;14.70;99.90;;;;;;7302213;19;8995;-81
2023/07/05 00:09:18;;;;;;;;;;;14.70;99.90;;;;;;7302655;19;9566;-81
2023/07/05 00:11:47;;;;;;;;;;;14.70;99.90;;;;;;7302409;19;9271;-81
2023/07/05 00:14:16;;;;;;;;;;;14.80;99.90;;;;;;7302447;19;9636;-81
2023/07/05 00:16:47;;;;;;;;;;;14.80;99.90;;;;;;7298803;19;10165;-81
2023/07/05 00:19:16;;;;;;;;;;;14.70;99.90;;;;;;7300314;19;9257;-81
2023/07/05 00:21:48;;;;;;;;;;;14.80;99.90;;;;;;7297037;19;9515;-81
2023/07/05 00:24:18;;;;;;;;;;;14.80;99.90;;;;;;7300643;19;9323;-81
2023/07/05 00:26:47;;;;;;;;;;;14.90;99.90;;;;;;7300339;19;9371;-82
2023/07/05 00:29:16;;;;;;;;;;;14.90;99.90;;;;;;7296734;19;9233;-81
2023/07/05 00:31:45;;;;;;;;;;;14.90;99.90;;;;;;7301529;19;11655;-81
2023/07/05 00:34:14;;;;;;;;;;;14.90;99.90;;;;;;7301825;19;9128;-81
2023/07/05 00:36:43;;;;;;;;;;;14.90;99.90;;;;;;7301293;19;9236;-81
2023/07/05 00:39:14;;;;;;;;;;;14.90;99.90;;;;;;7301248;19;9124;-81
2023/07/05 00:41:43;;;;;;;;;;;14.90;99.90;;;;;;7301093;19;9375;-81
2023/07/05 00:44:16;;;;;;;;;;;14.90;99.90;;;;;;7303166;19;9288;-81
2023/07/05 00:46:52;;;;;;;;;;;14.90;99.90;;;;;;7299951;19;9481;-81
2023/07/05 00:49:26;;;;;;;;;;;14.90;99.90;;;;;;7296679;19;9371;-81
2023/07/05 00:52:01;;;;;;;;;;;14.90;99.90;;;;;;7297539;19;9438;-81
2023/07/05 00:54:37;;;;;;;;;;;14.90;99.90;;;;;;7298952;19;9163;-81
2023/07/05 00:57:14;;;;;;;;;;;14.90;99.90;;;;;;7296606;19;10180;-81
2023/07/05 00:59:49;;;;;;;;;;;14.90;99.90;;;;;;7294118;19;10389;-81
2023/07/05 01:02:18;;;;;;;;;;;14.90;99.90;;;;;;7299494;19;11269;-81
2023/07/05 01:04:47;;;;;;;;;;;14.90;99.90;;;;;;7302565;19;9220;-81
2023/07/05 01:07:16;;;;;;;;;;;14.90;99.90;;;;;;7297891;19;9436;-81
2023/07/05 01:09:48;;;;;;;;;;;15.00;99.90;;;;;;7302164;19;9442;-81
2023/07/05 01:12:26;;;;;;;;;;;15.00;99.90;;;;;;7300674;19;9678;-81
2023/07/05 01:15:06;;;;;;;;;;;15.00;99.90;;;;;;7301615;19;11215;-81
2023/07/05 01:17:44;;;;;;;;;;;15.00;99.90;;;;;;7299948;19;9256;-81
2023/07/05 01:20:33;;;;;;;;;;;15.00;99.90;;;;;;7299834;19;9339;-81
2023/07/05 01:23:29;;;;;;;;;;;15.00;99.90;;;;;;7298918;19;9273;-81
2023/07/05 01:26:38;;;;;;;;;;;15.00;99.90;;;;;;7299293;19;11366;-81
2023/07/05 01:29:49;;;;;;;;;;;14.90;99.90;;;;;;7299739;19;9160;-81
2023/07/05 01:32:29;;;;;;;;;;;15.00;99.90;;;;;;7299690;19;9677;-81
2023/07/05 01:35:06;;;;;;;;;;;15.00;99.90;;;;;;7299631;19;10471;-81
2023/07/05 01:37:39;;;;;;;;;;;14.90;99.90;;;;;;7298220;19;9335;-81
2023/07/05 01:40:17;;;;;;;;;;;14.90;99.90;;;;;;7300894;19;9224;-82
2023/07/05 01:42:49;;;;;;;;;;;14.90;99.90;;;;;;7302064;19;9068;-81
2023/07/05 01:45:21;;;;;;;;;;;14.90;99.90;;;;;;7297726;19;9241;-81
2023/07/05 01:47:59;;;;;;;;;;;14.90;99.90;;;;;;7300293;19;9342;-81
2023/07/05 01:50:37;;;;;;;;;;;14.90;99.90;;;;;;7299963;19;9213;-81
2023/07/05 01:53:15;;;;;;;;;;;15.00;99.90;;;;;;7297427;19;9430;-81
2023/07/05 01:55:55;;;;;;;;;;;14.90;99.90;;;;;;7300040;19;8991;-81
2023/07/05 01:58:30;;;;;;;;;;;15.00;99.90;;;;;;7298561;19;9490;-81
2023/07/05 02:01:03;;;;;;;;;;;14.90;99.90;;;;;;7298022;19;9245;-81
2023/07/05 02:03:37;;;;;;;;;;;14.90;99.90;;;;;;7298185;19;9249;-81
2023/07/05 02:06:08;;;;;;;;;;;14.90;99.90;;;;;;7289094;19;9224;-81
2023/07/05 02:08:40;;;;;;;;;;;14.90;99.90;;;;;;7294390;19;11233;-81
2023/07/05 02:11:09;;;;;;;;;;;14.80;99.90;;;;;;7299428;19;9353;-81
2023/07/05 02:13:38;;;;;;;;;;;14.80;99.90;;;;;;7294133;19;9368;-81
2023/07/05 02:16:07;;;;;;;;;;;14.80;99.90;;;;;;7295821;19;9724;-81
2023/07/05 02:18:39;;;;;;;;;;;14.80;99.90;;;;;;7293830;19;9729;-81
2023/07/05 02:21:11;;;;;;;;;;;14.80;99.90;;;;;;7265523;19;10875;-81
2023/07/05 02:23:40;;;;;;;;;;;14.70;99.90;;;;;;7257021;19;9505;-82
2023/07/05 02:26:10;;;;;;;;;;;14.70;99.90;;;;;;7257653;19;11006;-81
2023/07/05 02:28:39;;;;;;;;;;;14.70;99.90;;;;;;7266745;19;10725;-81
2023/07/05 02:31:11;;;;;;;;;;;14.60;99.90;;;;;;7286034;19;9247;-81
2023/07/05 02:33:44;;;;;;;;;;;14.60;99.90;;;;;;7289374;19;9339;-81
2023/07/05 02:36:15;;;;;;;;;;;14.60;99.90;;;;;;7293425;19;12082;-81
2023/07/05 02:38:44;;;;;;;;;;;14.50;99.90;;;;;;7293980;19;11759;-82
2023/07/05 02:41:13;;;;;;;;;;;14.50;99.90;;;;;;7295511;19;9212;-81
2023/07/05 02:43:42;;;;;;;;;;;14.50;99.90;;;;;;7298980;19;9289;-81
2023/07/05 02:46:11;;;;;;;;;;;14.50;99.90;;;;;;7298019;19;9114;-82
2023/07/05 02:48:45;;;;;;;;;;;14.50;99.90;;;;;;7297737;19;9123;-82
2023/07/05 02:51:14;;;;;;;;;;;14.50;99.90;;;;;;7297619;19;9331;-82
2023/07/05 02:53:43;;;;;;;;;;;14.50;99.90;;;;;;7292497;19;9546;-81
2023/07/05 02:56:12;;;;;;;;;;;14.60;99.90;;;;;;7297795;19;9161;-81
2023/07/05 02:58:41;;;;;;;;;;;14.50;99.90;;;;;;7296565;19;9506;-81
2023/07/05 03:01:10;;;;;;;;;;;14.50;99.90;;;;;;7294570;19;9469;-81
2023/07/05 03:03:39;;;;;;;;;;;14.50;99.90;;;;;;7296510;19;9048;-81
2023/07/05 03:06:11;;;;;;;;;;;14.50;99.90;;;;;;7292552;19;11283;-81
2023/07/05 03:08:40;;;;;;;;;;;14.60;99.90;;;;;;7297367;19;9306;-82
2023/07/05 03:11:09;;;;;;;;;;;14.50;99.90;;;;;;7298488;19;9347;-81
2023/07/05 03:13:38;;;;;;;;;;;14.50;99.90;;;;;;7295596;19;9568;-81
2023/07/05 03:16:08;;;;;;;;;;;14.40;99.90;;;;;;7296642;19;9213;-81
2023/07/05 03:18:37;;;;;;;;;;;14.40;99.90;;;;;;7294871;19;9258;-82
2023/07/05 03:21:06;;;;;;;;;;;14.50;99.90;;;;;;7295377;19;10693;-82
2023/07/05 03:23:37;;;;;;;;;;;14.50;99.90;;;;;;7292200;19;9466;-81
2023/07/05 03:26:09;;;;;;;;;;;14.60;99.90;;;;;;7293790;19;9246;-82
2023/07/05 03:28:40;;;;;;;;;;;14.50;99.90;;;;;;7297464;19;11503;-81
2023/07/05 03:31:12;;;;;;;;;;;14.50;99.90;;;;;;7296106;19;9522;-82
2023/07/05 03:33:41;;;;;;;;;;;14.50;99.90;;;;;;7300079;19;9253;-82
2023/07/05 03:36:14;;;;;;;;;;;14.50;99.90;;;;;;7302965;19;9269;-81
2023/07/05 03:38:46;;;;;;;;;;;14.50;99.90;;;;;;7301325;19;10672;-81
2023/07/05 03:41:18;;;;;;;;;;;14.50;99.90;;;;;;7301849;19;9374;-81
2023/07/05 03:43:49;;;;;;;;;;;14.50;99.90;;;;;;7301160;19;9343;-81
2023/07/05 03:46:18;;;;;;;;;;;14.50;99.90;;;;;;7301103;19;9156;-81
2023/07/05 03:48:48;;;;;;;;;;;14.60;99.90;;;;;;7304367;19;9260;-81
2023/07/05 03:51:21;;;;;;;;;;;14.60;99.90;;;;;;7300615;19;9151;-82
2023/07/05 03:53:55;;;;;;;;;;;14.70;99.90;;;;;;7296787;19;10044;-81
2023/07/05 03:56:27;;;;;;;;;;;14.80;99.90;;;;;;7304982;19;9237;-82
2023/07/05 03:58:57;;;;;;;;;;;14.70;99.90;;;;;;7304225;19;10860;-81
2023/07/05 04:01:28;;;;;;;;;;;14.80;99.90;;;;;;7299300;19;9488;-81
2023/07/05 04:03:59;;;;;;;;;;;14.70;99.90;;;;;;7302011;19;9402;-81
2023/07/05 04:06:31;;;;;;;;;;;14.70;99.90;;;;;;7301348;19;9326;-81
2023/07/05 04:09:03;;;;;;;;;;;14.60;99.90;;;;;;7302091;19;9322;-81
2023/07/05 04:11:32;;;;;;;;;;;14.60;99.90;;;;;;7305190;19;9495;-81
2023/07/05 04:14:01;;;;;;;;;;;14.60;99.90;;;;;;7303110;19;11506;-81
2023/07/05 04:16:30;;;;;;;;;;;14.70;99.90;;;;;;7300789;19;11275;-82
2023/07/05 04:19:03;;;;;;;;;;;14.60;99.90;;;;;;7302872;19;9258;-81
2023/07/05 04:21:32;;;;;;;;;;;14.70;99.90;;;;;;7298244;19;9411;-81
2023/07/05 04:24:04;;;;;;;;;;;14.80;99.90;;;;;;7298607;19;8944;-81
2023/07/05 04:26:33;;;;;;;;;;;14.90;99.90;;;;;;7303067;19;9328;-81
2023/07/05 04:29:02;;;;;;;;;;;14.90;99.90;;;;;;7298304;19;10012;-81
2023/07/05 04:31:33;;;;;;;;;;;15.10;99.90;;;;;;7297504;19;8944;-81
2023/07/05 04:34:02;;;;;;;;;;;15.10;99.90;;;;;;7300162;19;9766;-81
2023/07/05 04:36:32;;;;;;;;;;;15.10;99.90;;;;;;7302669;19;9244;-81
2023/07/05 04:39:04;;;;;;;;;;;15.10;99.90;;;;;;7303310;19;9407;-82
2023/07/05 04:41:33;;;;;;;;;;;15.30;99.90;;;;;;7302030;19;9245;-81
2023/07/05 04:44:04;;;;;;;;;;;15.30;99.90;;;;;;7299211;19;9216;-81
2023/07/05 04:46:33;;;;;;;;;;;15.30;99.90;;;;;;7300995;19;9249;-81
2023/07/05 04:49:02;;;;;;;;;;;15.40;99.90;;;;;;7302899;19;9282;-81
2023/07/05 04:51:32;;;;;;;;;;;15.50;99.90;;;;;;7300937;19;9476;-81
2023/07/05 04:54:04;;;;;;;;;;;15.70;99.90;;;;;;7296573;19;9559;-81
2023/07/05 04:56:33;;;;;;;;;;;15.80;99.90;;;;;;7302979;19;9535;-81
2023/07/05 04:59:02;;;;;;;;;;;16.00;99.90;;;;;;7300745;19;9478;-81
2023/07/05 05:01:31;;;;;;;;;;;16.10;99.90;;;;;;7293250;19;9474;-80
2023/07/05 05:04:00;;;;;;;;;;;16.10;99.90;;;;;;7296104;19;9444;-81
2023/07/05 05:06:28;;;;;;;;;;;16.20;99.90;;;;;;7298463;19;9737;-81
2023/07/05 05:08:58;;;;;;;;;;;16.30;99.90;;;;;;7295751;19;9509;-80
2023/07/05 05:11:29;;;;;;;;;;;16.30;99.90;;;;;;7300133;19;9322;-81
2023/07/05 05:13:59;;;;;;;;;;;16.30;99.90;;;;;;7299207;19;9530;-81
2023/07/05 05:16:28;;;;;;;;;;;16.30;99.90;;;;;;7299990;19;10839;-81
2023/07/05 05:18:57;;;;;;;;;;;16.40;99.90;;;;;;7300637;19;10185;-81
2023/07/05 05:21:26;;;;;;;;;;;16.40;99.90;;;;;;7298869;19;9261;-80
2023/07/05 05:23:55;;;;;;;;;;;16.50;99.90;;;;;;7300265;19;9341;-80
2023/07/05 05:26:24;;;;;;;;;;;16.50;99.90;;;;;;7299599;19;9391;-81
2023/07/05 05:28:56;;;;;;;;;;;16.50;99.90;;;;;;7299659;19;9562;-81
2023/07/05 05:31:25;;;;;;;;;;;16.50;99.90;;;;;;7299201;19;8944;-81
2023/07/05 05:33:53;;;;;;;;;;;16.60;99.90;;;;;;7302237;19;9291;-81
2023/07/05 05:36:22;;;;;;;;;;;16.70;99.90;;;;;;7299929;19;9323;-80
2023/07/05 05:38:51;;;;;;;;;;;16.80;99.90;;;;;;7298607;19;9245;-81
2023/07/05 05:41:20;;;;;;;;;;;16.90;99.90;;;;;;7294077;19;9423;-84
2023/07/05 05:43:50;;;;;;;;;;;17.00;99.90;;;;;;7294844;19;9522;-81
2023/07/05 05:46:22;;;;;;;;;;;17.00;99.90;;;;;;7298039;19;8944;-80
2023/07/05 05:48:51;;;;;;;;;;;17.00;99.90;;;;;;7294792;19;9482;-78
2023/07/05 05:51:20;;;;;;;;;;;17.00;99.90;;;;;;7298696;19;11564;-80
2023/07/05 05:53:49;;;;;;;;;;;17.10;99.90;;;;;;7299687;19;10435;-85
2023/07/05 05:56:19;;;;;;;;;;;17.10;99.90;;;;;;7300358;19;9225;-79
2023/07/05 05:58:48;;;;;;;;;;;17.10;99.90;;;;;;7299380;19;9327;-80
2023/07/05 06:01:19;;;;;;;;;;;17.00;99.90;;;;;;7297651;19;9567;-80
2023/07/05 06:03:51;;;;;;;;;;;17.00;99.90;;;;;;7294176;19;9497;-82
2023/07/05 06:06:20;;;;;;;;;;;16.90;99.90;;;;;;7297040;19;9248;-81
2023/07/05 06:08:49;;;;;;;;;;;16.70;99.90;;;;;;7309407;19;9232;-79
2023/07/05 06:11:18;;;;;;;;;;;16.50;99.90;;;;;;7316990;19;9158;-85
2023/07/05 06:13:47;;;;;;;;;;;16.60;99.90;;;;;;7317714;19;9220;-88
2023/07/05 06:16:15;;;;;;;;;;;16.60;99.90;;;;;;7320134;19;11396;-83
2023/07/05 06:18:45;;;;;;;;;;;16.70;99.90;;;;;;7303589;19;9699;-83
2023/07/05 06:21:16;;;;;;;;;;;16.80;99.90;;;;;;7294092;19;11178;-79
2023/07/05 06:23:45;;;;;;;;;;;17.00;99.90;;;;;;7293365;19;9241;-81
2023/07/05 06:26:14;;;;;;;;;;;17.10;99.90;;;;;;7292477;19;10652;-81
2023/07/05 06:28:43;;;;;;;;;;;17.20;99.90;;;;;;7301102;19;9339;-81
2023/07/05 06:31:12;;;;;;;;;;;17.10;99.90;;;;;;7301921;19;10339;-81
2023/07/05 06:33:42;;;;;;;;;;;17.20;99.90;;;;;;7294265;19;9169;-82
2023/07/05 06:36:12;;;;;;;;;;;17.20;99.90;;;;;;7298577;19;9272;-81
2023/07/05 06:38:43;;;;;;;;;;;17.20;99.90;;;;;;7296876;19;9129;-81
2023/07/05 06:41:12;;;;;;;;;;;17.30;99.90;;;;;;7298719;19;9281;-81
2023/07/05 06:43:44;;;;;;;;;;;17.30;99.90;;;;;;7297105;19;9352;-81
2023/07/05 06:46:13;;;;;;;;;;;17.30;99.90;;;;;;7292501;19;9499;-81
2023/07/05 06:48:43;;;;;;;;;;;17.30;99.90;;;;;;7294219;19;9331;-81
2023/07/05 06:51:12;;;;;;;;;;;17.20;99.90;;;;;;7295621;19;10378;-81
2023/07/05 06:53:43;;;;;;;;;;;17.10;99.90;;;;;;7293940;19;9268;-81
2023/07/05 06:56:13;;;;;;;;;;;17.20;99.90;;;;;;7296861;19;9310;-81
2023/07/05 06:58:42;;;;;;;;;;;17.50;99.90;;;;;;7294909;19;9698;-81
2023/07/05 07:01:12;;;;;;;;;;;17.50;99.90;;;;;;7295446;19;9295;-81
2023/07/05 07:03:40;;;;;;;;;;;17.70;99.90;;;;;;7290869;19;9264;-82
2023/07/05 07:06:10;;;;;;;;;;;17.80;99.90;;;;;;7295583;19;9415;-81
2023/07/05 07:08:40;;;;;;;;;;;17.90;99.90;;;;;;7296493;19;9366;-81
2023/07/05 07:11:14;;;;;;;;;;;18.10;99.90;;;;;;7294960;19;9264;-81
2023/07/05 07:13:43;;;;;;;;;;;18.40;99.90;;;;;;7297204;19;9646;-81
2023/07/05 07:16:14;;;;;;;;;;;18.60;99.90;;;;;;7295537;19;9265;-82
2023/07/05 07:18:47;;;;;;;;;;;18.70;99.90;;;;;;7295590;19;9298;-82
2023/07/05 07:21:16;;;;;;;;;;;18.70;99.90;;;;;;7294001;19;9344;-81
2023/07/05 07:23:48;;;;;;;;;;;19.10;99.90;;;;;;7295068;19;9363;-81
2023/07/05 07:26:23;;;;;;;;;;;19.50;99.90;;;;;;7295600;19;9250;-81
2023/07/05 07:28:54;;;;;;;;;;;19.90;99.90;;;;;;7294878;19;8945;-82
2023/07/05 07:31:26;;;;;;;;;;;20.10;99.90;;;;;;7295879;19;9275;-81
2023/07/05 07:33:56;;;;;;;;;;;20.30;99.90;;;;;;7298236;19;9547;-81
2023/07/05 07:36:34;;;;;;;;;;;20.20;99.90;;;;;;7296982;19;9501;-81
2023/07/05 07:39:05;;;;;;;;;;;19.90;99.90;;;;;;7297677;19;9411;-81
2023/07/05 07:41:39;;;;;;;;;;;19.50;99.90;;;;;;7295198;19;10150;-81
2023/07/05 07:44:10;;;;;;;;;;;19.20;99.90;;;;;;7295705;19;9314;-81
2023/07/05 07:46:41;;;;;;;;;;;19.10;99.90;;;;;;7296003;19;9259;-82
2023/07/05 07:49:12;;;;;;;;;;;18.90;99.90;;;;;;7296308;19;9409;-81
2023/07/05 07:51:45;;;;;;;;;;;18.70;99.90;;;;;;7297096;19;9250;-81
2023/07/05 07:54:16;;;;;;;;;;;18.50;99.90;;;;;;7299507;19;9245;-81
2023/07/05 07:56:50;;;;;;;;;;;18.30;99.90;;;;;;7297292;19;9237;-82
2023/07/05 07:59:19;;;;;;;;;;;18.10;99.90;;;;;;7298273;19;9233;-79
2023/07/05 08:01:48;;;;;;;;;;;18.00;99.90;;;;;;7296532;19;9343;-81
2023/07/05 08:04:19;;;;;;;;;;;18.10;99.90;;;;;;7295138;19;9319;-82
2023/07/05 08:06:51;;;;;;;;;;;18.10;99.90;;;;;;7295986;19;9456;-81
2023/07/05 08:09:22;;;;;;;;;;;18.30;99.90;;;;;;7294197;19;10376;-81
2023/07/05 08:11:53;;;;;;;;;;;18.40;99.90;;;;;;7294453;19;10952;-81
2023/07/05 08:14:22;;;;;;;;;;;18.40;99.90;;;;;;7295416;19;9474;-82
2023/07/05 08:16:51;;;;;;;;;;;18.20;99.90;;;;;;7295353;19;9253;-82
2023/07/05 08:19:21;;;;;;;;;;;18.10;99.90;;;;;;7300510;19;9367;-81
2023/07/05 08:21:50;;;;;;;;;;;18.00;99.90;;;;;;7301982;19;12146;-82
2023/07/05 08:24:20;;;;;;;;;;;17.70;99.90;;;;;;7298956;19;9266;-82
2023/07/05 08:26:49;;;;;;;;;;;17.60;99.90;;;;;;7300962;19;11469;-83
2023/07/05 08:29:20;;;;;;;;;;;17.30;99.90;;;;;;7302339;19;9550;-83
2023/07/05 08:31:50;;;;;;;;;;;17.10;99.90;;;;;;7300417;19;11059;-82
2023/07/05 08:34:20;;;;;;;;;;;16.90;99.90;;;;;;7303272;19;9283;-82
2023/07/05 08:36:49;;;;;;;;;;;16.80;99.90;;;;;;7301491;19;9089;-82
2023/07/05 08:39:18;;;;;;;;;;;16.80;99.90;;;;;;7301443;19;9299;-83
2023/07/05 08:42:12;;;;;;;;;;;16.70;99.90;;;;;;7304319;19;9408;-82
2023/07/05 08:45:00;;;;;;;;;;;16.90;99.90;;;;;;7300622;19;9241;-82
2023/07/05 08:47:34;;;;;;;;;;;16.80;99.90;;;;;;7302673;19;9288;-82
2023/07/05 08:50:18;;;;;;;;;;;16.80;99.90;;;;;;7302084;19;9278;-82
2023/07/05 08:52:50;;;;;;;;;;;16.80;99.90;;;;;;7301502;19;10174;-81
2023/07/05 08:55:37;;;;;;;;;;;16.70;99.90;;;;;;7301016;19;9351;-83
2023/07/05 08:58:11;;;;;;;;;;;16.80;99.90;;;;;;7301123;19;9374;-81
2023/07/05 09:00:53;;;;;;;;;;;16.70;99.90;;;;;;7300775;19;9142;-82
2023/07/05 09:03:28;;;;;;;;;;;16.70;99.90;;;;;;7301823;19;9367;-83
2023/07/05 09:06:10;;;;;;;;;;;16.60;99.90;;;;;;7300311;19;9393;-83
2023/07/05 09:08:56;;;;;;;;;;;16.60;99.90;;;;;;7301765;19;11072;-82
2023/07/05 09:11:38;;;;;;;;;;;16.20;99.90;;;;;;7299172;19;9293;-82
2023/07/05 09:14:22;;;;;;;;;;;16.20;99.90;;;;;;7301374;19;9245;-84
2023/07/05 09:17:03;;;;;;;;;;;15.90;99.90;;;;;;7264547;19;9546;-82
2023/07/05 09:19:47;;;;;;;;;;;15.80;99.90;;;;;;7265112;19;9478;-82
2023/07/05 09:22:21;;;;;;;;;;;15.80;99.90;;;;;;7279359;19;9262;-82
2023/07/05 09:24:51;;;;;;;;;;;15.80;99.90;;;;;;7280380;19;9775;-82
2023/07/05 09:27:26;;;;;;;;;;;15.80;99.90;;;;;;7267026;19;9355;-82
2023/07/05 09:30:01;;;;;;;;;;;15.70;99.90;;;;;;7270943;19;9695;-81
2023/07/05 09:32:39;;;;;;;;;;;15.80;99.90;;;;;;7294950;19;9214;-82
2023/07/05 09:35:18;;;;;;;;;;;15.80;99.90;;;;;;7293722;19;9233;-86
2023/07/05 09:37:57;;;;;;;;;;;15.80;99.90;;;;;;7301271;19;9201;-81
2023/07/05 09:40:31;;;;;;;;;;;15.70;99.90;;;;;;7299323;19;9261;-82
2023/07/05 09:43:03;;;;;;;;;;;15.90;99.90;;;;;;7303285;19;9294;-82
2023/07/05 09:45:33;;;;;;;;;;;16.00;99.90;;;;;;7306939;19;9881;-81
2023/07/05 09:48:07;;;;;;;;;;;15.90;99.90;;;;;;7305498;19;9261;-81
2023/07/05 09:50:36;;;;;;;;;;;16.00;99.90;;;;;;7300185;19;9248;-81
2023/07/05 09:53:23;;;;;;;;;;;16.00;99.90;;;;;;7301409;19;10792;-81
2023/07/05 09:56:08;;;;;;;;;;;16.10;99.90;;;;;;7299453;19;8997;-80
2023/07/05 10:12:33;;;;;;;;;;;16.30;99.90;;;;;;7289245;19;9863;-78
2023/07/05 10:47:17;;;;;;;;;;;17.80;99.90;;;;;;7266185;19;9252;-82
2023/07/05 10:49:49;;;;;;;;;;;17.90;99.90;;;;;;7300800;19;11160;-82
2023/07/05 10:52:20;;;;;;;;;;;17.90;99.90;;;;;;7297886;19;9426;-81
2023/07/05 10:55:01;;;;;;;;;;;17.80;99.90;;;;;;7307808;19;10016;-81
2023/07/05 10:57:35;;;;;;;;;;;17.90;99.90;;;;;;7307417;19;9556;-82
2023/07/05 11:00:17;;;;;;;;;;;18.00;99.90;;;;;;7308426;19;9233;-83
2023/07/05 11:02:55;;;;;;;;;;;18.10;99.90;;;;;;7309288;19;9267;-84
2023/07/05 11:05:29;;;;;;;;;;;18.10;99.90;;;;;;7311082;19;10142;-86
2023/07/05 11:08:03;;;;;;;;;;;18.20;99.90;;;;;;7308820;19;10177;-83
2023/07/05 11:10:41;;;;;;;;;;;18.00;99.90;;;;;;7308582;19;9546;-86
2023/07/05 11:13:17;;;;;;;;;;;18.00;99.90;;;;;;7308897;19;9228;-84
2023/07/05 11:15:48;;;;;;;;;;;18.10;99.90;;;;;;7305975;19;9536;-84
2023/07/05 11:18:22;;;;;;;;;;;18.20;99.90;;;;;;7303059;19;9327;-85
2023/07/05 11:20:54;;;;;;;;;;;18.30;99.90;;;;;;7293022;19;9564;-84
2023/07/05 11:23:54;;;;;;;;;;;18.40;99.90;;;;;;7302134;19;9471;-86
2023/07/05 11:26:45;;;;;;;;;;;18.50;99.90;;;;;;7303442;19;10061;-86
2023/07/05 11:29:51;;;;;;;;;;;18.60;99.90;;;;;;7303626;19;9261;-85
2023/07/05 11:32:21;;;;;;;;;;;18.60;99.90;;;;;;7308285;19;10214;-85
2023/07/05 11:34:58;;;;;;;;;;;18.60;99.90;;;;;;7302971;19;9286;-86
2023/07/05 11:37:47;;;;;;;;;;;18.60;99.90;;;;;;7308515;19;9510;-86
2023/07/05 11:41:04;;;;;;;;;;;18.50;99.90;;;;;;7303624;19;9608;-85
2023/07/05 11:43:42;;;;;;;;;;;18.50;99.90;;;;;;7305486;19;9223;-88
2023/07/05 11:46:54;;;;;;;;;;;18.70;99.90;;;;;;7305667;19;9357;-84
2023/07/05 11:49:39;;;;;;;;;;;18.80;99.90;;;;;;7302277;19;9639;-86
2023/07/05 11:52:17;;;;;;;;;;;18.80;99.90;;;;;;7305045;19;12874;-86
2023/07/05 11:55:00;;;;;;;;;;;18.70;99.90;;;;;;7308164;19;10791;-87
2023/07/05 11:57:37;;;;;;;;;;;18.70;99.90;;;;;;7308921;19;9329;-86
2023/07/05 12:00:18;;;;;;;;;;;18.90;99.90;;;;;;7310160;19;9253;-86
2023/07/05 12:02:58;;;;;;;;;;;19.00;99.90;;;;;;7306996;19;11658;-85
2023/07/05 12:05:32;;;;;;;;;;;19.20;99.90;;;;;;7307670;19;10348;-86
2023/07/05 12:08:13;;;;;;;;;;;19.10;99.90;;;;;;7307992;19;15163;-86
2023/07/05 12:10:48;;;;;;;;;;;19.00;99.90;;;;;;7309207;19;9269;-86
2023/07/05 12:13:22;;;;;;;;;;;19.00;99.90;;;;;;7308246;19;9109;-86
2023/07/05 12:15:52;;;;;;;;;;;18.80;99.90;;;;;;7308740;19;9312;-86
2023/07/05 12:18:23;;;;;;;;;;;18.80;99.90;;;;;;7307250;19;9550;-83
2023/07/05 12:20:56;;;;;;;;;;;18.70;99.90;;;;;;7306731;19;9311;-84
2023/07/05 12:23:29;;;;;;;;;;;18.60;99.90;;;;;;7309201;19;9496;-86
2023/07/05 12:26:01;;;;;;;;;;;18.70;99.90;;;;;;7314432;19;9530;-85
2023/07/05 12:28:32;;;;;;;;;;;18.70;99.90;;;;;;7315387;19;9255;-83
2023/07/05 12:31:05;;;;;;;;;;;18.80;99.90;;;;;;7318411;19;9553;-86
2023/07/05 12:33:37;;;;;;;;;;;18.90;99.90;;;;;;7313472;19;10985;-85
2023/07/05 12:36:11;;;;;;;;;;;18.90;99.90;;;;;;7315311;19;9104;-85
2023/07/05 12:38:45;;;;;;;;;;;18.90;99.90;;;;;;7312354;19;9139;-86
2023/07/05 12:41:20;;;;;;;;;;;18.60;99.90;;;;;;7314825;19;9260;-85
2023/07/05 12:43:51;;;;;;;;;;;18.50;99.90;;;;;;7310301;19;9485;-86
2023/07/05 12:46:29;;;;;;;;;;;18.50;99.90;;;;;;7312463;19;10836;-86
2023/07/05 12:48:58;;;;;;;;;;;18.50;99.90;;;;;;7314063;19;10839;-86
2023/07/05 12:51:29;;;;;;;;;;;18.30;99.90;;;;;;7313839;19;9271;-86
2023/07/05 12:54:03;;;;;;;;;;;18.10;99.90;;;;;;7285200;19;10187;-86
2023/07/05 12:56:36;;;;;;;;;;;17.90;99.90;;;;;;7270986;19;9224;-87
2023/07/05 12:59:08;;;;;;;;;;;17.90;99.90;;;;;;7266393;19;9232;-82
2023/07/05 13:01:44;;;;;;;;;;;17.90;99.90;;;;;;7303748;19;9379;-82
2023/07/05 13:04:18;;;;;;;;;;;18.10;99.90;;;;;;7306175;19;9127;-82
2023/07/05 13:06:48;;;;;;;;;;;17.80;99.90;;;;;;7310852;19;9261;-82
2023/07/05 13:09:30;;;;;;;;;;;17.60;99.90;;;;;;7307100;19;9347;-81
2023/07/05 13:12:02;;;;;;;;;;;17.60;99.90;;;;;;7309089;19;9444;-82
2023/07/05 13:14:33;;;;;;;;;;;17.60;99.90;;;;;;7310681;19;10349;-83
2023/07/05 13:17:18;;;;;;;;;;;17.70;99.90;;;;;;7310129;19;9264;-80
2023/07/05 13:19:50;;;;;;;;;;;17.70;99.90;;;;;;7310876;19;9232;-82
2023/07/05 13:22:26;;;;;;;;;;;17.70;99.90;;;;;;7310318;19;10712;-82
2023/07/05 13:25:00;;;;;;;;;;;17.70;99.90;;;;;;7307472;19;13211;-83
2023/07/05 13:27:32;;;;;;;;;;;17.60;99.90;;;;;;7308711;19;9524;-83
2023/07/05 13:30:11;;;;;;;;;;;17.80;99.90;;;;;;7311375;19;9932;-83
2023/07/05 13:32:45;;;;;;;;;;;17.90;99.90;;;;;;7309708;19;9493;-82
2023/07/05 13:35:14;;;;;;;;;;;17.90;99.90;;;;;;7307804;19;9265;-82
2023/07/05 13:37:43;;;;;;;;;;;18.00;99.90;;;;;;7309044;19;9487;-82
2023/07/05 13:40:21;;;;;;;;;;;18.10;99.90;;;;;;7310122;19;11231;-82
2023/07/05 13:42:52;;;;;;;;;;;18.00;99.90;;;;;;7309034;19;11171;-82
2023/07/05 13:45:24;;;;;;;;;;;18.10;99.90;;;;;;7308486;19;9576;-81
2023/07/05 13:47:53;;;;;;;;;;;18.00;99.90;;;;;;7306532;19;11155;-81
2023/07/05 13:50:24;;;;;;;;;;;17.90;99.90;;;;;;7308601;19;9340;-82
2023/07/05 13:52:53;;;;;;;;;;;18.00;99.90;;;;;;7308875;19;9292;-82
2023/07/05 13:55:26;;;;;;;;;;;17.90;99.90;;;;;;7302428;19;9249;-82
2023/07/05 13:58:01;;;;;;;;;;;17.90;99.90;;;;;;7307528;19;12271;-81
2023/07/05 14:00:32;;;;;;;;;;;17.90;99.90;;;;;;7310100;19;9625;-77
2023/07/05 14:03:04;;;;;;;;;;;17.90;99.90;;;;;;7309579;19;9706;-81
2023/07/05 14:05:33;;;;;;;;;;;17.80;99.90;;;;;;7305801;19;9253;-81
2023/07/05 14:08:06;;;;;;;;;;;17.90;99.90;;;;;;7307544;19;9221;-81
2023/07/05 14:10:38;;;;;;;;;;;17.80;99.90;;;;;;7307190;19;9262;-81
2023/07/05 14:13:10;;;;;;;;;;;17.60;99.90;;;;;;7306591;19;9261;-81
2023/07/05 14:15:42;;;;;;;;;;;17.70;99.90;;;;;;7308208;19;9475;-81
2023/07/05 14:18:17;;;;;;;;;;;17.50;99.90;;;;;;7308791;19;9256;-80
2023/07/05 14:20:48;;;;;;;;;;;17.60;99.90;;;;;;7308459;19;9308;-82
2023/07/05 14:23:19;;;;;;;;;;;17.60;99.90;;;;;;7305085;19;9491;-81
2023/07/05 14:25:53;;;;;;;;;;;17.60;99.90;;;;;;7306040;19;9474;-82
2023/07/05 14:28:23;;;;;;;;;;;17.60;99.90;;;;;;7308346;19;9249;-82
2023/07/05 14:30:52;;;;;;;;;;;17.60;99.90;;;;;;7310692;19;9262;-81
2023/07/05 14:33:21;;;;;;;;;;;17.60;99.90;;;;;;7306960;19;9469;-82
2023/07/05 14:35:50;;;;;;;;;;;17.60;99.90;;;;;;7306692;19;9248;-81
2023/07/05 14:38:19;;;;;;;;;;;17.60;99.90;;;;;;7308558;19;9131;-82
2023/07/05 14:40:52;;;;;;;;;;;17.70;99.90;;;;;;7307152;19;9272;-76
2023/07/05 14:43:21;;;;;;;;;;;17.80;99.90;;;;;;7306060;19;9259;-76
2023/07/05 14:45:50;;;;;;;;;;;17.70;99.90;;;;;;7300968;19;9259;-76
2023/07/05 14:48:19;;;;;;;;;;;17.80;99.90;;;;;;7302447;19;9269;-76
2023/07/05 14:50:48;;;;;;;;;;;17.70;99.90;;;;;;7301366;19;9359;-76
2023/07/05 14:53:23;;;;;;;;;;;17.80;99.90;;;;;;7302582;19;9680;-83
2023/07/05 14:55:55;;;;;;;;;;;17.70;99.90;;;;;;7302274;19;9264;-81
2023/07/05 14:58:26;;;;;;;;;;;17.60;99.90;;;;;;7300479;19;9793;-80
2023/07/05 15:00:55;;;;;;;;;;;17.40;99.90;;;;;;7308703;19;11474;-79
2023/07/05 15:03:29;;;;;;;;;;;17.40;99.90;;;;;;7300499;19;9292;-80
2023/07/05 15:05:59;;;;;;;;;;;17.30;99.90;;;;;;7307396;19;9316;-77
2023/07/05 15:08:30;;;;;;;;;;;17.30;99.90;;;;;;7298186;19;11787;-85
2023/07/05 15:11:02;;;;;;;;;;;17.50;99.90;;;;;;7299802;19;9246;-85
2023/07/05 15:13:33;;;;;;;;;;;17.60;99.90;;;;;;7306541;19;9332;-83
2023/07/05 15:16:05;;;;;;;;;;;17.60;99.90;;;;;;7308530;19;11186;-83
2023/07/05 15:18:34;;;;;;;;;;;17.70;99.90;;;;;;7306038;19;9266;-85
2023/07/05 15:21:04;;;;;;;;;;;17.50;99.90;;;;;;7306960;19;11209;-85
2023/07/05 15:23:33;;;;;;;;;;;17.70;99.90;;;;;;7301104;19;9604;-85
2023/07/05 15:26:07;;;;;;;;;;;17.80;99.90;;;;;;7305221;19;9508;-86
2023/07/05 15:28:36;;;;;;;;;;;17.40;99.90;;;;;;7311007;19;9260;-82
2023/07/05 15:31:05;;;;;;;;;;;17.30;99.90;;;;;;7312178;19;9758;-82
2023/07/05 15:33:34;;;;;;;;;;;17.20;99.90;;;;;;7312085;19;9251;-90
2023/07/05 15:36:03;;;;;;;;;;;17.20;99.90;;;;;;7315341;19;9260;-90
2023/07/05 15:38:32;;;;;;;;;;;17.20;99.90;;;;;;7316659;19;9519;-88
2023/07/05 15:41:08;;;;;;;;;;;17.40;99.90;;;;;;7315321;19;9259;-83
2023/07/05 15:43:37;;;;;;;;;;;17.50;99.90;;;;;;7313440;19;9307;-80
2023/07/05 15:46:10;;;;;;;;;;;17.50;99.90;;;;;;7311161;19;9450;-85
2023/07/05 15:48:39;;;;;;;;;;;17.50;99.90;;;;;;7311145;19;9481;-85